sensor_id;sensor_type;location;lat;lon;timestamp;pressure;altitude;pressure_sealevel;temperature;humidity
61757;BME280;57225;61.460;24.060;2023-04-05T00:00:29;101255.97;;;-2.99;52.34
61757;BME280;57225;61.460;24.060;2023-04-05T00:03:15;101253.47;;;-2.95;52.00
61757;BME280;57225;61.460;24.060;2023-04-05T00:06:01;101249.66;;;-2.94;50.81
61757;BME280;57225;61.460;24.060;2023-04-05T00:08:47;101260.28;;;-2.93;50.77
61757;BME280;57225;61.460;24.060;2023-04-05T00:11:33;101254.38;;;-3.05;52.96
61757;BME280;57225;61.460;24.060;2023-04-05T00:14:17;101261.75;;;-3.05;52.57
61757;BME280;57225;61.460;24.060;2023-04-05T00:17:02;101252.81;;;-3.16;52.25
61757;BME280;57225;61.460;24.060;2023-04-05T00:19:47;101250.94;;;-3.20;52.02
61757;BME280;57225;61.460;24.060;2023-04-05T00:22:34;101255.84;;;-3.17;53.04
61757;BME280;57225;61.460;24.060;2023-04-05T00:25:20;101251.78;;;-3.25;52.39
61757;BME280;57225;61.460;24.060;2023-04-05T00:28:05;101246.88;;;-3.23;51.77
61757;BME280;57225;61.460;24.060;2023-04-05T00:30:51;101245.25;;;-3.24;52.30
61757;BME280;57225;61.460;24.060;2023-04-05T00:33:36;101256.75;;;-3.32;52.20
61757;BME280;57225;61.460;24.060;2023-04-05T00:36:20;101257.84;;;-3.33;52.32
61757;BME280;57225;61.460;24.060;2023-04-05T00:39:05;101253.53;;;-3.39;53.06
61757;BME280;57225;61.460;24.060;2023-04-05T00:41:49;101250.84;;;-3.44;53.24
61757;BME280;57225;61.460;24.060;2023-04-05T00:44:34;101241.06;;;-3.50;53.16
61757;BME280;57225;61.460;24.060;2023-04-05T00:47:19;101247.88;;;-3.53;52.98
61757;BME280;57225;61.460;24.060;2023-04-05T00:50:04;101251.69;;;-3.54;54.01
61757;BME280;57225;61.460;24.060;2023-04-05T00:52:49;101248.09;;;-3.44;52.28
61757;BME280;57225;61.460;24.060;2023-04-05T00:55:35;101241.84;;;-3.45;53.13
61757;BME280;57225;61.460;24.060;2023-04-05T00:58:19;101239.44;;;-3.51;53.51
61757;BME280;57225;61.460;24.060;2023-04-05T01:01:17;101235.03;;;-3.47;52.98
61757;BME280;57225;61.460;24.060;2023-04-05T01:04:04;101241.06;;;-3.50;53.98
61757;BME280;57225;61.460;24.060;2023-04-05T01:12:32;101242.63;;;-3.39;52.64
61757;BME280;57225;61.460;24.060;2023-04-05T01:15:17;101246.47;;;-3.45;52.85
61757;BME280;57225;61.460;24.060;2023-04-05T01:18:02;101241.06;;;-3.50;52.90
61757;BME280;57225;61.460;24.060;2023-04-05T01:20:51;101245.16;;;-3.53;52.85
61757;BME280;57225;61.460;24.060;2023-04-05T01:23:59;101241.59;;;-3.53;52.24
61757;BME280;57225;61.460;24.060;2023-04-05T01:27:31;101239.00;;;-3.69;53.65
61757;BME280;57225;61.460;24.060;2023-04-05T01:30:23;101245.56;;;-3.75;53.45
61757;BME280;57225;61.460;24.060;2023-04-05T01:33:17;101214.34;;;-3.92;54.51
61757;BME280;57225;61.460;24.060;2023-04-05T01:36:15;101240.38;;;-3.76;53.60
61757;BME280;57225;61.460;24.060;2023-04-05T01:39:01;101236.84;;;-3.77;53.92
61757;BME280;57225;61.460;24.060;2023-04-05T01:41:47;101241.16;;;-3.71;52.87
61757;BME280;57225;61.460;24.060;2023-04-05T01:44:32;101245.81;;;-3.71;53.89
61757;BME280;57225;61.460;24.060;2023-04-05T01:47:20;101239.28;;;-3.75;54.92
61757;BME280;57225;61.460;24.060;2023-04-05T01:50:05;101245.28;;;-3.73;53.77
61757;BME280;57225;61.460;24.060;2023-04-05T01:52:49;101249.91;;;-3.74;54.33
61757;BME280;57225;61.460;24.060;2023-04-05T01:55:35;101252.88;;;-3.70;53.71
61757;BME280;57225;61.460;24.060;2023-04-05T01:58:19;101252.13;;;-3.81;54.95
61757;BME280;57225;61.460;24.060;2023-04-05T02:01:04;101251.03;;;-3.80;54.27
61757;BME280;57225;61.460;24.060;2023-04-05T02:03:48;101253.75;;;-3.80;56.05
61757;BME280;57225;61.460;24.060;2023-04-05T02:06:32;101255.59;;;-3.70;54.34
61757;BME280;57225;61.460;24.060;2023-04-05T02:09:17;101253.63;;;-3.59;52.81
61757;BME280;57225;61.460;24.060;2023-04-05T02:12:01;101242.69;;;-3.49;52.50
61757;BME280;57225;61.460;24.060;2023-04-05T02:14:46;101241.06;;;-3.50;53.49
61757;BME280;57225;61.460;24.060;2023-04-05T02:17:30;101235.03;;;-3.47;53.32
61757;BME280;57225;61.460;24.060;2023-04-05T02:20:22;101236.66;;;-3.46;53.90
61757;BME280;57225;61.460;24.060;2023-04-05T02:23:08;101239.97;;;-3.49;53.11
61757;BME280;57225;61.460;24.060;2023-04-05T02:25:53;101239.97;;;-3.49;53.13
61757;BME280;57225;61.460;24.060;2023-04-05T02:28:37;101237.28;;;-3.54;53.63
61757;BME280;57225;61.460;24.060;2023-04-05T02:31:22;101237.78;;;-3.52;52.71
61757;BME280;57225;61.460;24.060;2023-04-05T02:34:06;101236.75;;;-3.56;54.08
61757;BME280;57225;61.460;24.060;2023-04-05T02:36:54;101240.56;;;-3.57;53.13
61757;BME280;57225;61.460;24.060;2023-04-05T02:39:40;101243.00;;;-3.56;53.54
61757;BME280;57225;61.460;24.060;2023-04-05T02:42:24;101234.88;;;-3.61;54.68
61757;BME280;57225;61.460;24.060;2023-04-05T02:45:09;101242.72;;;-3.54;54.02
61757;BME280;57225;61.460;24.060;2023-04-05T02:47:53;101234.47;;;-3.44;53.35
61757;BME280;57225;61.460;24.060;2023-04-05T02:50:38;101230.69;;;-3.48;53.25
61757;BME280;57225;61.460;24.060;2023-04-05T02:53:22;101209.19;;;-3.50;54.03
61757;BME280;57225;61.460;24.060;2023-04-05T02:56:07;101229.56;;;-3.42;53.59
61757;BME280;57225;61.460;24.060;2023-04-05T02:58:51;101227.34;;;-3.35;52.92
61757;BME280;57225;61.460;24.060;2023-04-05T03:01:36;101225.91;;;-3.28;52.47
61757;BME280;57225;61.460;24.060;2023-04-05T03:04:21;101223.19;;;-3.28;52.13
61757;BME280;57225;61.460;24.060;2023-04-05T03:07:05;101218.59;;;-3.32;52.51
61757;BME280;57225;61.460;24.060;2023-04-05T03:09:51;101213.72;;;-3.35;52.89
61757;BME280;57225;61.460;24.060;2023-04-05T03:12:35;101227.59;;;-3.32;54.30
61757;BME280;57225;61.460;24.060;2023-04-05T03:15:20;101221.09;;;-3.36;54.08
61757;BME280;57225;61.460;24.060;2023-04-05T03:18:04;101213.72;;;-3.40;53.62
61757;BME280;57225;61.460;24.060;2023-04-05T03:20:49;101221.91;;;-3.35;53.89
61757;BME280;57225;61.460;24.060;2023-04-05T03:23:39;101220.25;;;-3.36;53.37
61757;BME280;57225;61.460;24.060;2023-04-05T03:26:23;101223.81;;;-3.41;54.36
61757;BME280;57225;61.460;24.060;2023-04-05T03:29:08;101213.22;;;-3.42;53.80
61757;BME280;57225;61.460;24.060;2023-04-05T03:31:52;101209.69;;;-3.43;53.74
61757;BME280;57225;61.460;24.060;2023-04-05T03:34:37;101226.00;;;-3.38;54.57
61757;BME280;57225;61.460;24.060;2023-04-05T03:37:21;101233.91;;;-3.41;54.88
61757;BME280;57225;61.460;24.060;2023-04-05T03:40:06;101233.91;;;-3.36;53.09
61757;BME280;57225;61.460;24.060;2023-04-05T03:42:53;101225.41;;;-3.35;54.62
61757;BME280;57225;61.460;24.060;2023-04-05T03:45:38;101231.16;;;-3.36;54.70
61757;BME280;57225;61.460;24.060;2023-04-05T03:48:22;101235.81;;;-3.37;54.79
61757;BME280;57225;61.460;24.060;2023-04-05T03:51:07;101242.56;;;-3.34;54.91
61757;BME280;57225;61.460;24.060;2023-04-05T03:53:51;101241.75;;;-3.35;54.60
61757;BME280;57225;61.460;24.060;2023-04-05T03:56:35;101242.06;;;-3.36;54.28
61757;BME280;57225;61.460;24.060;2023-04-05T03:59:20;101236.31;;;-3.35;54.65
61757;BME280;57225;61.460;24.060;2023-04-05T04:02:06;101237.44;;;-3.36;54.90
61757;BME280;57225;61.460;24.060;2023-04-05T04:04:51;101236.63;;;-3.36;54.69
61757;BME280;57225;61.460;24.060;2023-04-05T04:07:37;101236.94;;;-3.43;56.19
61757;BME280;57225;61.460;24.060;2023-04-05T04:10:21;101242.63;;;-3.39;56.31
61757;BME280;57225;61.460;24.060;2023-04-05T04:13:05;101248.88;;;-3.39;55.13
61757;BME280;57225;61.460;24.060;2023-04-05T04:15:50;101246.44;;;-3.40;54.86
61757;BME280;57225;61.460;24.060;2023-04-05T04:18:35;101250.47;;;-3.33;54.72
61757;BME280;57225;61.460;24.060;2023-04-05T04:21:19;101260.00;;;-3.30;55.03
61757;BME280;57225;61.460;24.060;2023-04-05T04:24:07;101261.66;;;-3.29;54.94
61757;BME280;57225;61.460;24.060;2023-04-05T04:26:51;101251.53;;;-3.29;54.28
61757;BME280;57225;61.460;24.060;2023-04-05T04:29:37;101254.84;;;-3.32;55.97
61757;BME280;57225;61.460;24.060;2023-04-05T04:32:32;101260.53;;;-3.28;53.65
61757;BME280;57225;61.460;24.060;2023-04-05T04:35:35;101256.16;;;-3.24;53.52
61757;BME280;57225;61.460;24.060;2023-04-05T04:38:21;101259.97;;;-3.25;53.60
61757;BME280;57225;61.460;24.060;2023-04-05T04:41:12;101260.22;;;-3.21;53.95
61757;BME280;57225;61.460;24.060;2023-04-05T04:43:59;101259.94;;;-3.20;54.46
61757;BME280;57225;61.460;24.060;2023-04-05T04:46:46;101257.22;;;-3.20;54.12
61757;BME280;57225;61.460;24.060;2023-04-05T04:49:31;101261.28;;;-3.17;53.74
61757;BME280;57225;61.460;24.060;2023-04-05T04:52:15;101259.06;;;-3.15;54.33
61757;BME280;57225;61.460;24.060;2023-04-05T04:55:01;101272.19;;;-3.17;53.03
61757;BME280;57225;61.460;24.060;2023-04-05T04:57:45;101260.47;;;-3.18;53.06
61757;BME280;57225;61.460;24.060;2023-04-05T05:00:30;101268.88;;;-3.14;54.57
61757;BME280;57225;61.460;24.060;2023-04-05T05:03:14;101265.38;;;-3.20;54.07
61757;BME280;57225;61.460;24.060;2023-04-05T05:05:59;101275.97;;;-3.13;53.13
61757;BME280;57225;61.460;24.060;2023-04-05T05:08:44;101271.88;;;-3.11;53.17
61757;BME280;57225;61.460;24.060;2023-04-05T05:11:32;101281.69;;;-2.76;52.21
61757;BME280;57225;61.460;24.060;2023-04-05T05:14:16;101281.16;;;-2.20;51.18
61757;BME280;57225;61.460;24.060;2023-04-05T05:17:01;101274.88;;;-1.73;49.30
61757;BME280;57225;61.460;24.060;2023-04-05T05:19:45;101285.56;;;-1.53;49.09
61757;BME280;57225;61.460;24.060;2023-04-05T05:22:32;101274.91;;;-0.98;49.59
61757;BME280;57225;61.460;24.060;2023-04-05T05:25:16;101276.97;;;-0.90;48.73
61757;BME280;57225;61.460;24.060;2023-04-05T05:28:01;101278.28;;;-0.55;48.12
61757;BME280;57225;61.460;24.060;2023-04-05T05:30:46;101281.19;;;-0.98;47.42
61757;BME280;57225;61.460;24.060;2023-04-05T05:33:56;101278.38;;;-0.93;47.43
61757;BME280;57225;61.460;24.060;2023-04-05T05:36:41;101280.19;;;-0.23;47.37
61757;BME280;57225;61.460;24.060;2023-04-05T05:39:25;101282.34;;;-0.85;47.17
61757;BME280;57225;61.460;24.060;2023-04-05T05:42:10;101289.53;;;-0.89;48.22
61757;BME280;57225;61.460;24.060;2023-04-05T05:44:54;101288.84;;;-0.81;48.42
61757;BME280;57225;61.460;24.060;2023-04-05T05:47:38;101294.06;;;-0.98;48.03
61757;BME280;57225;61.460;24.060;2023-04-05T05:50:23;101291.91;;;-0.83;47.15
61757;BME280;57225;61.460;24.060;2023-04-05T05:53:08;101300.50;;;-0.89;47.96
61757;BME280;57225;61.460;24.060;2023-04-05T05:55:53;101297.09;;;-1.18;48.38
61757;BME280;57225;61.460;24.060;2023-04-05T05:58:41;101295.22;;;-0.86;47.23
61757;BME280;57225;61.460;24.060;2023-04-05T06:01:27;101294.78;;;-1.30;48.50
61757;BME280;57225;61.460;24.060;2023-04-05T06:04:12;101294.69;;;-1.63;49.50
61757;BME280;57225;61.460;24.060;2023-04-05T06:06:57;101287.91;;;-1.65;50.06
61757;BME280;57225;61.460;24.060;2023-04-05T06:09:42;101289.63;;;-1.74;50.31
61757;BME280;57225;61.460;24.060;2023-04-05T06:12:27;101290.09;;;-1.67;50.91
61757;BME280;57225;61.460;24.060;2023-04-05T06:15:12;101290.69;;;-1.94;52.71
61757;BME280;57225;61.460;24.060;2023-04-05T06:17:56;101290.00;;;-2.05;52.44
61757;BME280;57225;61.460;24.060;2023-04-05T06:20:42;101298.53;;;-2.11;52.73
61757;BME280;57225;61.460;24.060;2023-04-05T06:23:27;101295.56;;;-2.15;53.42
61757;BME280;57225;61.460;24.060;2023-04-05T06:26:19;101298.59;;;-2.16;53.24
61757;BME280;57225;61.460;24.060;2023-04-05T06:29:03;101298.75;;;-2.08;53.79
61757;BME280;57225;61.460;24.060;2023-04-05T06:31:48;101296.50;;;-2.24;53.29
61757;BME280;57225;61.460;24.060;2023-04-05T06:34:33;101292.53;;;-2.13;53.38
61757;BME280;57225;61.460;24.060;2023-04-05T06:56:20;101308.66;;;-1.45;52.25
61757;BME280;57225;61.460;24.060;2023-04-05T06:59:06;101313.56;;;-1.05;51.17
61757;BME280;57225;61.460;24.060;2023-04-05T07:01:50;101314.66;;;-0.68;51.27
61757;BME280;57225;61.460;24.060;2023-04-05T07:04:35;101322.31;;;-0.19;48.84
61757;BME280;57225;61.460;24.060;2023-04-05T07:07:20;101314.69;;;-0.22;49.04
61757;BME280;57225;61.460;24.060;2023-04-05T07:10:05;101312.28;;;-0.10;49.47
61757;BME280;57225;61.460;24.060;2023-04-05T07:12:50;101315.34;;;0.16;50.08
61757;BME280;57225;61.460;24.060;2023-04-05T07:15:34;101317.56;;;0.41;49.10
61757;BME280;57225;61.460;24.060;2023-04-05T07:18:19;101321.94;;;0.56;48.68
61757;BME280;57225;61.460;24.060;2023-04-05T07:21:04;101325.13;;;0.85;50.68
61757;BME280;57225;61.460;24.060;2023-04-05T07:23:48;101330.91;;;1.86;48.49
61757;BME280;57225;61.460;24.060;2023-04-05T07:26:33;101330.16;;;1.94;47.69
61757;BME280;57225;61.460;24.060;2023-04-05T07:29:20;101330.50;;;2.41;46.65
61757;BME280;57225;61.460;24.060;2023-04-05T07:32:06;101321.84;;;2.73;45.98
61757;BME280;57225;61.460;24.060;2023-04-05T07:34:50;101328.06;;;2.31;47.22
61757;BME280;57225;61.460;24.060;2023-04-05T07:37:35;101314.44;;;2.82;47.60
61757;BME280;57225;61.460;24.060;2023-04-05T07:40:20;101312.47;;;2.74;47.26
61757;BME280;57225;61.460;24.060;2023-04-05T07:43:04;101321.16;;;2.51;46.98
61757;BME280;57225;61.460;24.060;2023-04-05T07:45:48;101307.97;;;2.30;48.38
61757;BME280;57225;61.460;24.060;2023-04-05T07:48:35;101299.41;;;2.32;48.52
61757;BME280;57225;61.460;24.060;2023-04-05T07:51:19;101307.56;;;2.06;48.40
61757;BME280;57225;61.460;24.060;2023-04-05T07:54:04;101291.34;;;1.65;49.89
61757;BME280;57225;61.460;24.060;2023-04-05T07:56:49;101296.94;;;1.82;50.90
61757;BME280;57225;61.460;24.060;2023-04-05T07:59:36;101294.38;;;1.86;51.20
61757;BME280;57225;61.460;24.060;2023-04-05T08:02:20;101297.19;;;2.42;51.94
61757;BME280;57225;61.460;24.060;2023-04-05T08:05:05;101294.94;;;2.53;50.92
61757;BME280;57225;61.460;24.060;2023-04-05T08:07:49;101296.31;;;3.07;49.31
61757;BME280;57225;61.460;24.060;2023-04-05T08:10:38;101294.72;;;2.41;50.16
61757;BME280;57225;61.460;24.060;2023-04-05T08:13:22;101291.78;;;2.20;51.95
61757;BME280;57225;61.460;24.060;2023-04-05T08:16:08;101291.09;;;1.75;53.12
61757;BME280;57225;61.460;24.060;2023-04-05T08:18:52;101284.00;;;2.14;52.93
61757;BME280;57225;61.460;24.060;2023-04-05T08:21:37;101286.81;;;2.48;52.57
61757;BME280;57225;61.460;24.060;2023-04-05T08:24:21;101276.19;;;2.72;51.32
61757;BME280;57225;61.460;24.060;2023-04-05T08:27:05;101280.59;;;2.91;50.38
61757;BME280;57225;61.460;24.060;2023-04-05T08:29:50;101285.13;;;3.12;49.61
61757;BME280;57225;61.460;24.060;2023-04-05T08:32:35;101286.09;;;3.08;51.27
61757;BME280;57225;61.460;24.060;2023-04-05T08:35:19;101278.22;;;3.70;47.80
61757;BME280;57225;61.460;24.060;2023-04-05T08:38:06;101288.47;;;4.16;49.00
61757;BME280;57225;61.460;24.060;2023-04-05T08:40:51;101283.81;;;4.37;48.10
61757;BME280;57225;61.460;24.060;2023-04-05T08:46:42;101283.06;;;4.28;47.66
61757;BME280;57225;61.460;24.060;2023-04-05T08:49:27;101289.00;;;4.01;49.79
61757;BME280;57225;61.460;24.060;2023-04-05T08:52:11;101265.50;;;3.95;50.43
61757;BME280;57225;61.460;24.060;2023-04-05T08:54:55;101272.38;;;5.18;46.91
61757;BME280;57225;61.460;24.060;2023-04-05T08:57:43;101284.63;;;4.00;50.87
61757;BME280;57225;61.460;24.060;2023-04-05T09:00:32;101279.56;;;4.40;50.32
61757;BME280;57225;61.460;24.060;2023-04-05T09:03:20;101286.53;;;4.46;50.01
61757;BME280;57225;61.460;24.060;2023-04-05T09:06:06;101280.47;;;4.53;50.04
61757;BME280;57225;61.460;24.060;2023-04-05T09:08:52;101276.88;;;4.81;49.99
61757;BME280;57225;61.460;24.060;2023-04-05T09:11:38;101264.53;;;5.20;48.51
61757;BME280;57225;61.460;24.060;2023-04-05T09:14:23;101273.91;;;3.98;50.88
61757;BME280;57225;61.460;24.060;2023-04-05T09:17:08;101274.44;;;3.92;51.66
61757;BME280;57225;61.460;24.060;2023-04-05T09:19:53;101275.94;;;3.81;52.13
61757;BME280;57225;61.460;24.060;2023-04-05T09:22:47;101267.94;;;3.96;51.98
61757;BME280;57225;61.460;24.060;2023-04-05T09:28:16;101278.06;;;4.13;53.04
61757;BME280;57225;61.460;24.060;2023-04-05T09:31:00;101276.78;;;4.49;52.55
61757;BME280;57225;61.460;24.060;2023-04-05T09:33:45;101281.22;;;4.62;52.61
61757;BME280;57225;61.460;24.060;2023-04-05T09:36:32;101281.69;;;4.93;52.01
61757;BME280;57225;61.460;24.060;2023-04-05T09:39:17;101284.16;;;4.86;52.48
61757;BME280;57225;61.460;24.060;2023-04-05T09:42:09;101290.44;;;5.16;52.66
61757;BME280;57225;61.460;24.060;2023-04-05T09:44:55;101295.72;;;5.42;53.33
61757;BME280;57225;61.460;24.060;2023-04-05T09:47:40;101303.75;;;5.35;52.99
61757;BME280;57225;61.460;24.060;2023-04-05T09:50:24;101294.38;;;4.35;55.46
61757;BME280;57225;61.460;24.060;2023-04-05T09:53:12;101291.97;;;4.84;55.32
61757;BME280;57225;61.460;24.060;2023-04-05T09:56:08;101286.41;;;5.46;55.49
61757;BME280;57225;61.460;24.060;2023-04-05T09:59:01;101294.06;;;5.29;55.18
61757;BME280;57225;61.460;24.060;2023-04-05T10:01:50;101294.22;;;5.77;54.83
61757;BME280;57225;61.460;24.060;2023-04-05T10:04:41;101292.19;;;5.86;53.97
61757;BME280;57225;61.460;24.060;2023-04-05T10:07:25;101303.91;;;5.83;52.38
61757;BME280;57225;61.460;24.060;2023-04-05T10:10:11;101307.00;;;6.02;52.96
61757;BME280;57225;61.460;24.060;2023-04-05T10:12:55;101302.28;;;5.82;53.34
61757;BME280;57225;61.460;24.060;2023-04-05T10:15:44;101307.25;;;5.44;54.57
61757;BME280;57225;61.460;24.060;2023-04-05T10:18:44;101297.31;;;6.21;52.56
61757;BME280;57225;61.460;24.060;2023-04-05T10:21:32;101309.97;;;5.97;53.56
61757;BME280;57225;61.460;24.060;2023-04-05T10:24:33;101308.59;;;6.03;54.42
61757;BME280;57225;61.460;24.060;2023-04-05T10:27:26;101317.84;;;6.07;52.58
61757;BME280;57225;61.460;24.060;2023-04-05T10:30:12;101313.91;;;5.96;53.79
61757;BME280;57225;61.460;24.060;2023-04-05T10:33:19;101305.38;;;6.01;54.42
61757;BME280;57225;61.460;24.060;2023-04-05T10:36:32;101312.56;;;6.75;51.82
61757;BME280;57225;61.460;24.060;2023-04-05T10:39:26;101318.09;;;6.27;52.03
61757;BME280;57225;61.460;24.060;2023-04-05T10:42:26;101319.00;;;6.07;52.64
61757;BME280;57225;61.460;24.060;2023-04-05T10:45:12;101331.25;;;6.18;53.13
61757;BME280;57225;61.460;24.060;2023-04-05T10:48:16;101328.72;;;6.49;52.30
61757;BME280;57225;61.460;24.060;2023-04-05T10:51:02;101333.91;;;6.87;50.07
61757;BME280;57225;61.460;24.060;2023-04-05T10:53:47;101307.34;;;6.86;49.97
61757;BME280;57225;61.460;24.060;2023-04-05T10:56:33;101330.22;;;6.59;50.57
61757;BME280;57225;61.460;24.060;2023-04-05T10:59:19;101329.66;;;6.53;50.27
61757;BME280;57225;61.460;24.060;2023-04-05T11:02:06;101341.63;;;6.21;51.28
61757;BME280;57225;61.460;24.060;2023-04-05T11:04:53;101339.34;;;6.47;51.70
61757;BME280;57225;61.460;24.060;2023-04-05T11:07:44;101344.28;;;6.90;51.08
61757;BME280;57225;61.460;24.060;2023-04-05T11:10:37;101334.09;;;7.46;49.06
61757;BME280;57225;61.460;24.060;2023-04-05T11:16:54;101337.94;;;7.70;47.21
61757;BME280;57225;61.460;24.060;2023-04-05T11:22:29;101340.44;;;8.02;47.00
61757;BME280;57225;61.460;24.060;2023-04-05T11:25:21;101346.59;;;7.52;46.94
61757;BME280;57225;61.460;24.060;2023-04-05T11:28:07;101331.75;;;6.56;50.89
61757;BME280;57225;61.460;24.060;2023-04-05T11:30:53;101334.38;;;6.65;51.10
61757;BME280;57225;61.460;24.060;2023-04-05T11:42:02;101332.56;;;6.44;50.64
61757;BME280;57225;61.460;24.060;2023-04-05T11:44:48;101315.31;;;6.39;49.79
61757;BME280;57225;61.460;24.060;2023-04-05T11:47:36;101315.06;;;6.07;50.73
61757;BME280;57225;61.460;24.060;2023-04-05T11:50:20;101309.00;;;6.63;49.88
61757;BME280;57225;61.460;24.060;2023-04-05T11:55:53;101298.50;;;7.08;48.49
61757;BME280;57225;61.460;24.060;2023-04-05T11:58:39;101299.88;;;6.74;49.28
61757;BME280;57225;61.460;24.060;2023-04-05T12:01:23;101293.97;;;6.88;49.37
61757;BME280;57225;61.460;24.060;2023-04-05T12:04:08;101295.59;;;6.28;50.00
61757;BME280;57225;61.460;24.060;2023-04-05T12:07:09;101288.00;;;6.25;51.09
61757;BME280;57225;61.460;24.060;2023-04-05T12:10:07;101296.66;;;6.48;51.18
61757;BME280;57225;61.460;24.060;2023-04-05T12:12:53;101295.25;;;6.54;51.50
61757;BME280;57225;61.460;24.060;2023-04-05T12:15:41;101301.50;;;6.75;51.32
61757;BME280;57225;61.460;24.060;2023-04-05T12:18:27;101296.72;;;7.28;50.31
61757;BME280;57225;61.460;24.060;2023-04-05T12:21:11;101300.50;;;8.07;48.42
61757;BME280;57225;61.460;24.060;2023-04-05T12:23:57;101299.31;;;7.92;49.13
61757;BME280;57225;61.460;24.060;2023-04-05T12:26:41;101290.97;;;7.77;48.57
61757;BME280;57225;61.460;24.060;2023-04-05T12:29:26;101300.75;;;8.18;49.39
61757;BME280;57225;61.460;24.060;2023-04-05T12:35:28;101306.81;;;7.48;51.28
61757;BME280;57225;61.460;24.060;2023-04-05T12:38:17;101305.13;;;7.87;50.27
61757;BME280;57225;61.460;24.060;2023-04-05T12:41:02;101301.75;;;8.57;48.43
61757;BME280;57225;61.460;24.060;2023-04-05T12:43:47;101299.28;;;7.77;49.37
61757;BME280;57225;61.460;24.060;2023-04-05T12:46:38;101305.44;;;8.45;49.19
61757;BME280;57225;61.460;24.060;2023-04-05T12:53:04;101314.09;;;7.96;49.18
61757;BME280;57225;61.460;24.060;2023-04-05T12:55:50;101310.09;;;8.41;48.97
61757;BME280;57225;61.460;24.060;2023-04-05T12:58:36;101314.03;;;8.71;48.76
61757;BME280;57225;61.460;24.060;2023-04-05T13:01:21;101308.03;;;8.54;48.26
61757;BME280;57225;61.460;24.060;2023-04-05T13:04:05;101305.41;;;7.82;48.87
61757;BME280;57225;61.460;24.060;2023-04-05T13:06:49;101301.72;;;7.50;50.66
61757;BME280;57225;61.460;24.060;2023-04-05T13:09:34;101313.66;;;8.10;49.82
61757;BME280;57225;61.460;24.060;2023-04-05T13:12:19;101307.88;;;8.46;49.20
61757;BME280;57225;61.460;24.060;2023-04-05T13:15:04;101293.19;;;8.30;47.89
61757;BME280;57225;61.460;24.060;2023-04-05T13:17:50;101306.16;;;8.42;48.96
61757;BME280;57225;61.460;24.060;2023-04-05T13:20:42;101304.19;;;8.42;48.90
61757;BME280;57225;61.460;24.060;2023-04-05T13:23:29;101312.94;;;8.60;49.03
61757;BME280;57225;61.460;24.060;2023-04-05T13:26:17;101321.50;;;8.52;50.20
61757;BME280;57225;61.460;24.060;2023-04-05T13:29:02;101310.91;;;7.66;50.33
61757;BME280;57225;61.460;24.060;2023-04-05T13:31:51;101311.44;;;7.16;51.48
61757;BME280;57225;61.460;24.060;2023-04-05T13:34:40;101308.22;;;7.14;53.85
61757;BME280;57225;61.460;24.060;2023-04-05T13:37:28;101301.13;;;7.29;52.58
61757;BME280;57225;61.460;24.060;2023-04-05T13:40:12;101314.72;;;7.34;52.41
61757;BME280;57225;61.460;24.060;2023-04-05T13:42:56;101310.41;;;7.49;52.25
61757;BME280;57225;61.460;24.060;2023-04-05T13:45:41;101313.09;;;7.45;51.36
61757;BME280;57225;61.460;24.060;2023-04-05T13:48:25;101307.44;;;7.70;52.56
61757;BME280;57225;61.460;24.060;2023-04-05T13:51:10;101308.91;;;7.51;52.00
61757;BME280;57225;61.460;24.060;2023-04-05T13:53:54;101295.00;;;7.23;53.71
61757;BME280;57225;61.460;24.060;2023-04-05T13:56:38;101305.25;;;7.35;53.22
61757;BME280;57225;61.460;24.060;2023-04-05T13:59:25;101317.31;;;7.15;54.88
61757;BME280;57225;61.460;24.060;2023-04-05T14:02:09;101320.50;;;7.01;55.06
61757;BME280;57225;61.460;24.060;2023-04-05T14:04:54;101305.28;;;6.95;55.32
61757;BME280;57225;61.460;24.060;2023-04-05T14:07:39;101325.25;;;7.28;55.58
61757;BME280;57225;61.460;24.060;2023-04-05T14:10:23;101310.53;;;7.40;54.58
61757;BME280;57225;61.460;24.060;2023-04-05T14:13:08;101320.75;;;7.36;54.64
61757;BME280;57225;61.460;24.060;2023-04-05T14:15:52;101301.22;;;6.93;55.41
61757;BME280;57225;61.460;24.060;2023-04-05T14:18:36;101321.78;;;6.92;55.98
61757;BME280;57225;61.460;24.060;2023-04-05T14:21:21;101315.34;;;7.15;55.51
61757;BME280;57225;61.460;24.060;2023-04-05T14:24:07;101317.63;;;6.85;56.11
61757;BME280;57225;61.460;24.060;2023-04-05T14:26:52;101313.47;;;6.79;56.07
61757;BME280;57225;61.460;24.060;2023-04-05T14:29:36;101307.34;;;6.86;55.63
61757;BME280;57225;61.460;24.060;2023-04-05T14:32:23;101308.28;;;6.78;54.98
61757;BME280;57225;61.460;24.060;2023-04-05T14:35:08;101304.66;;;6.90;55.97
61757;BME280;57225;61.460;24.060;2023-04-05T14:37:54;101308.97;;;6.87;55.44
61757;BME280;57225;61.460;24.060;2023-04-05T14:40:39;101305.63;;;6.33;56.13
61757;BME280;57225;61.460;24.060;2023-04-05T14:43:24;101308.19;;;6.26;56.55
61757;BME280;57225;61.460;24.060;2023-04-05T14:46:09;101309.44;;;6.16;57.73
61757;BME280;57225;61.460;24.060;2023-04-05T14:48:54;101304.63;;;6.37;56.65
61757;BME280;57225;61.460;24.060;2023-04-05T14:51:38;101301.72;;;6.34;57.11
61757;BME280;57225;61.460;24.060;2023-04-05T14:54:23;101313.03;;;6.29;58.01
61757;BME280;57225;61.460;24.060;2023-04-05T14:57:07;101300.56;;;6.35;57.86
61757;BME280;57225;61.460;24.060;2023-04-05T14:59:52;101283.91;;;6.71;55.31
61757;BME280;57225;61.460;24.060;2023-04-05T15:02:37;101294.59;;;6.57;54.52
61757;BME280;57225;61.460;24.060;2023-04-05T15:05:21;101289.94;;;6.61;55.60
61757;BME280;57225;61.460;24.060;2023-04-05T15:08:05;101299.19;;;6.53;55.33
61757;BME280;57225;61.460;24.060;2023-04-05T15:10:50;101291.56;;;6.62;56.14
61757;BME280;57225;61.460;24.060;2023-04-05T15:13:34;101295.25;;;6.54;55.70
61757;BME280;57225;61.460;24.060;2023-04-05T15:16:19;101291.44;;;6.59;55.98
61757;BME280;57225;61.460;24.060;2023-04-05T15:19:03;101297.22;;;6.66;56.31